sensor_id;sensor_type;location;lat;lon;timestamp;pressure;altitude;pressure_sealevel;temperature;humidity
70133;BME280;57495;49.922;7.966;2022-09-01T00:01:20;100277.59;;;18.27;58.38
70133;BME280;57495;49.922;7.966;2022-09-01T00:03:24;100272.53;;;18.24;58.47
70133;BME280;57495;49.922;7.966;2022-09-01T00:05:27;100274.50;;;18.30;58.40
70133;BME280;57495;49.922;7.966;2022-09-01T00:07:32;100276.53;;;18.13;58.83
70133;BME280;57495;49.922;7.966;2022-09-01T00:09:35;100274.41;;;18.09;58.88
70133;BME280;57495;49.922;7.966;2022-09-01T00:11:38;100274.88;;;18.12;58.53
70133;BME280;57495;49.922;7.966;2022-09-01T00:13:40;100269.47;;;18.12;58.50
70133;BME280;57495;49.922;7.966;2022-09-01T00:15:42;100273.66;;;18.15;58.38
70133;BME280;57495;49.922;7.966;2022-09-01T00:17:44;100275.72;;;18.13;58.60
70133;BME280;57495;49.922;7.966;2022-09-01T00:19:45;100267.13;;;18.09;58.55
70133;BME280;57495;49.922;7.966;2022-09-01T00:21:47;100273.09;;;18.05;58.33
70133;BME280;57495;49.922;7.966;2022-09-01T00:23:48;100269.34;;;18.06;58.31
70133;BME280;57495;49.922;7.966;2022-09-01T00:25:49;100273.09;;;18.05;58.13
70133;BME280;57495;49.922;7.966;2022-09-01T00:27:53;100263.28;;;18.04;58.43
70133;BME280;57495;49.922;7.966;2022-09-01T00:29:59;100266.75;;;17.98;58.50
70133;BME280;57495;49.922;7.966;2022-09-01T00:32:00;100268.34;;;18.07;58.19
70133;BME280;57495;49.922;7.966;2022-09-01T00:34:03;100268.88;;;18.02;58.33
70133;BME280;57495;49.922;7.966;2022-09-01T00:36:05;100273.47;;;18.02;58.27
70133;BME280;57495;49.922;7.966;2022-09-01T00:38:07;100268.81;;;17.95;58.68
70133;BME280;57495;49.922;7.966;2022-09-01T00:40:10;100267.09;;;17.94;58.34
70133;BME280;57495;49.922;7.966;2022-09-01T00:42:12;100257.06;;;17.80;58.95
70133;BME280;57495;49.922;7.966;2022-09-01T00:44:18;100260.03;;;17.93;58.68
70133;BME280;57495;49.922;7.966;2022-09-01T00:46:24;100258.09;;;17.79;58.87
70133;BME280;57495;49.922;7.966;2022-09-01T00:48:26;100260.38;;;17.90;58.58
70133;BME280;57495;49.922;7.966;2022-09-01T00:50:27;100250.28;;;17.84;58.77
70133;BME280;57495;49.922;7.966;2022-09-01T00:52:32;100252.63;;;17.87;58.66
70133;BME280;57495;49.922;7.966;2022-09-01T00:54:37;100248.94;;;17.80;58.98
70133;BME280;57495;49.922;7.966;2022-09-01T00:56:40;100246.56;;;17.85;58.91
70133;BME280;57495;49.922;7.966;2022-09-01T00:58:43;100247.56;;;17.69;59.54
70133;BME280;57495;49.922;7.966;2022-09-01T01:00:47;100250.34;;;17.76;59.29
70133;BME280;57495;49.922;7.966;2022-09-01T01:02:50;100246.34;;;17.72;59.38
70133;BME280;57495;49.922;7.966;2022-09-01T01:04:54;100255.84;;;17.68;59.46
70133;BME280;57495;49.922;7.966;2022-09-01T01:06:59;100252.75;;;17.71;59.44
70133;BME280;57495;49.922;7.966;2022-09-01T01:09:02;100248.75;;;17.67;59.55
70133;BME280;57495;49.922;7.966;2022-09-01T01:11:05;100252.50;;;17.66;59.76
70133;BME280;57495;49.922;7.966;2022-09-01T01:13:09;100249.09;;;17.64;59.49
70133;BME280;57495;49.922;7.966;2022-09-01T01:15:13;100249.09;;;17.64;59.37
70133;BME280;57495;49.922;7.966;2022-09-01T01:17:18;100241.84;;;17.64;59.59
70133;BME280;57495;49.922;7.966;2022-09-01T01:19:24;100241.19;;;17.62;59.35
70133;BME280;57495;49.922;7.966;2022-09-01T01:21:47;100232.44;;;17.60;59.40
70133;BME280;57495;49.922;7.966;2022-09-01T01:24:18;100231.94;;;17.56;59.54
70133;BME280;57495;49.922;7.966;2022-09-01T01:26:21;100237.22;;;17.50;59.82
70133;BME280;57495;49.922;7.966;2022-09-01T01:28:24;100236.41;;;17.49;59.72
70133;BME280;57495;49.922;7.966;2022-09-01T01:30:30;100248.06;;;17.50;59.90
70133;BME280;57495;49.922;7.966;2022-09-01T01:32:36;100230.88;;;17.43;59.96
70133;BME280;57495;49.922;7.966;2022-09-01T01:34:39;100237.50;;;17.40;60.36
70133;BME280;57495;49.922;7.966;2022-09-01T01:36:45;100239.53;;;17.38;60.15
70133;BME280;57495;49.922;7.966;2022-09-01T01:38:48;100239.53;;;17.38;60.18
70133;BME280;57495;49.922;7.966;2022-09-01T01:40:51;100239.06;;;17.34;60.44
70133;BME280;57495;49.922;7.966;2022-09-01T01:42:54;100242.03;;;17.39;60.24
70133;BME280;57495;49.922;7.966;2022-09-01T01:44:56;100241.28;;;17.31;60.58
70133;BME280;57495;49.922;7.966;2022-09-01T01:46:58;100246.31;;;17.34;60.27
70133;BME280;57495;49.922;7.966;2022-09-01T01:49:03;100242.53;;;17.43;60.08
70133;BME280;57495;49.922;7.966;2022-09-01T01:51:05;100242.59;;;17.35;60.55
70133;BME280;57495;49.922;7.966;2022-09-01T01:53:07;100249.41;;;17.31;60.43
70133;BME280;57495;49.922;7.966;2022-09-01T01:55:11;100248.06;;;17.27;60.53
70133;BME280;57495;49.922;7.966;2022-09-01T01:57:14;100246.53;;;17.32;60.57
70133;BME280;57495;49.922;7.966;2022-09-01T01:59:17;100248.53;;;17.30;60.31
70133;BME280;57495;49.922;7.966;2022-09-01T02:01:18;100249.88;;;17.34;60.33
70133;BME280;57495;49.922;7.966;2022-09-01T02:03:24;100250.41;;;17.30;60.48
70133;BME280;57495;49.922;7.966;2022-09-01T02:05:28;100243.50;;;17.27;60.48
70133;BME280;57495;49.922;7.966;2022-09-01T02:07:31;100244.34;;;17.28;60.58
70133;BME280;57495;49.922;7.966;2022-09-01T02:09:32;100250.06;;;17.33;60.36
70133;BME280;57495;49.922;7.966;2022-09-01T02:11:34;100248.38;;;17.32;60.58
70133;BME280;57495;49.922;7.966;2022-09-01T02:13:38;100249.09;;;17.26;60.58
70133;BME280;57495;49.922;7.966;2022-09-01T02:15:41;100242.13;;;17.31;60.38
70133;BME280;57495;49.922;7.966;2022-09-01T02:17:43;100242.59;;;17.35;60.50
70133;BME280;57495;49.922;7.966;2022-09-01T02:19:45;100241.28;;;17.31;60.53
70133;BME280;57495;49.922;7.966;2022-09-01T02:21:46;100247.72;;;17.30;60.62
70133;BME280;57495;49.922;7.966;2022-09-01T02:23:55;100245.34;;;17.27;60.84
70133;BME280;57495;49.922;7.966;2022-09-01T02:25:59;100246.09;;;17.20;60.96
70133;BME280;57495;49.922;7.966;2022-09-01T02:28:02;100245.91;;;17.22;60.75
70133;BME280;57495;49.922;7.966;2022-09-01T02:30:14;100250.84;;;17.18;60.62
70133;BME280;57495;49.922;7.966;2022-09-01T02:32:16;100251.38;;;17.14;60.95
70133;BME280;57495;49.922;7.966;2022-09-01T02:34:23;100246.25;;;17.19;60.83
70133;BME280;57495;49.922;7.966;2022-09-01T02:36:28;100248.44;;;17.24;60.71
70133;BME280;57495;49.922;7.966;2022-09-01T02:38:32;100240.38;;;17.15;61.05
70133;BME280;57495;49.922;7.966;2022-09-01T02:40:33;100250.09;;;17.25;60.70
70133;BME280;57495;49.922;7.966;2022-09-01T02:42:38;100238.72;;;17.14;60.93
70133;BME280;57495;49.922;7.966;2022-09-01T02:44:42;100249.22;;;17.09;61.46
70133;BME280;57495;49.922;7.966;2022-09-01T02:46:45;100240.75;;;17.12;61.18
70133;BME280;57495;49.922;7.966;2022-09-01T02:48:47;100239.53;;;17.15;61.26
70133;BME280;57495;49.922;7.966;2022-09-01T02:50:50;100235.22;;;17.06;61.45
70133;BME280;57495;49.922;7.966;2022-09-01T02:52:53;100237.00;;;17.13;61.12
70133;BME280;57495;49.922;7.966;2022-09-01T02:54:54;100234.97;;;17.15;61.49
70133;BME280;57495;49.922;7.966;2022-09-01T02:56:56;100239.06;;;17.11;61.43
70133;BME280;57495;49.922;7.966;2022-09-01T02:58:58;100235.34;;;17.12;61.26
70133;BME280;57495;49.922;7.966;2022-09-01T03:01:02;100228.84;;;16.98;61.67
70133;BME280;57495;49.922;7.966;2022-09-01T03:03:05;100231.34;;;17.08;61.73
70133;BME280;57495;49.922;7.966;2022-09-01T03:05:07;100224.88;;;17.09;61.73
70133;BME280;57495;49.922;7.966;2022-09-01T03:07:09;100231.44;;;17.15;61.23
70133;BME280;57495;49.922;7.966;2022-09-01T03:09:15;100221.19;;;17.10;61.40
70133;BME280;57495;49.922;7.966;2022-09-01T03:11:17;100223.81;;;17.18;61.34
70133;BME280;57495;49.922;7.966;2022-09-01T03:13:21;100232.09;;;17.17;61.48
70133;BME280;57495;49.922;7.966;2022-09-01T03:15:23;100226.94;;;17.07;61.95
70133;BME280;57495;49.922;7.966;2022-09-01T03:17:24;100231.50;;;17.07;61.79
70133;BME280;57495;49.922;7.966;2022-09-01T03:19:27;100232.03;;;17.02;61.96
70133;BME280;57495;49.922;7.966;2022-09-01T03:21:44;100225.66;;;16.95;62.36
70133;BME280;57495;49.922;7.966;2022-09-01T03:23:47;100234.25;;;16.98;62.06
70133;BME280;57495;49.922;7.966;2022-09-01T03:25:49;100228.16;;;17.05;62.08
70133;BME280;57495;49.922;7.966;2022-09-01T03:27:51;100231.38;;;17.00;62.05
70133;BME280;57495;49.922;7.966;2022-09-01T03:29:52;100232.03;;;17.02;61.96
70133;BME280;57495;49.922;7.966;2022-09-01T03:31:54;100230.88;;;16.96;62.13
70133;BME280;57495;49.922;7.966;2022-09-01T03:33:55;100238.69;;;16.91;62.54
70133;BME280;57495;49.922;7.966;2022-09-01T03:35:59;100227.88;;;16.91;62.56
70133;BME280;57495;49.922;7.966;2022-09-01T03:38:01;100224.91;;;16.86;62.52
70133;BME280;57495;49.922;7.966;2022-09-01T03:40:05;100230.66;;;16.83;62.76
70133;BME280;57495;49.922;7.966;2022-09-01T03:42:08;100228.78;;;16.84;62.96
70133;BME280;57495;49.922;7.966;2022-09-01T03:44:11;100231.84;;;16.72;63.44
70133;BME280;57495;49.922;7.966;2022-09-01T03:46:15;100231.81;;;16.80;63.13
70133;BME280;57495;49.922;7.966;2022-09-01T03:48:21;100230.66;;;16.83;63.08
70133;BME280;57495;49.922;7.966;2022-09-01T03:50:25;100220.03;;;16.73;63.26
70133;BME280;57495;49.922;7.966;2022-09-01T03:52:28;100232.50;;;16.74;63.42
70133;BME280;57495;49.922;7.966;2022-09-01T03:54:29;100236.25;;;16.73;63.37
70133;BME280;57495;49.922;7.966;2022-09-01T03:56:32;100236.25;;;16.73;63.24
70133;BME280;57495;49.922;7.966;2022-09-01T03:58:33;100233.84;;;16.78;63.41
70133;BME280;57495;49.922;7.966;2022-09-01T04:00:37;100231.69;;;16.74;63.56
70133;BME280;57495;49.922;7.966;2022-09-01T04:02:39;100234.25;;;16.67;63.84
70133;BME280;57495;49.922;7.966;2022-09-01T04:04:41;100233.09;;;16.61;64.11
70133;BME280;57495;49.922;7.966;2022-09-01T04:06:43;100230.56;;;16.60;64.02
70133;BME280;57495;49.922;7.966;2022-09-01T04:08:46;100234.28;;;16.59;64.29
70133;BME280;57495;49.922;7.966;2022-09-01T04:10:49;100233.09;;;16.61;64.07
70133;BME280;57495;49.922;7.966;2022-09-01T04:12:51;100231.28;;;16.54;64.23
70133;BME280;57495;49.922;7.966;2022-09-01T04:14:58;100237.00;;;16.59;64.02
70133;BME280;57495;49.922;7.966;2022-09-01T04:17:00;100228.25;;;16.49;64.59
70133;BME280;57495;49.922;7.966;2022-09-01T04:19:36;100235.31;;;16.18;65.96
70133;BME280;57495;49.922;7.966;2022-09-01T04:21:38;100237.94;;;16.35;65.11
70133;BME280;57495;49.922;7.966;2022-09-01T04:23:40;100242.84;;;16.31;65.48
70133;BME280;57495;49.922;7.966;2022-09-01T04:25:43;100238.28;;;16.40;65.31
70133;BME280;57495;49.922;7.966;2022-09-01T04:27:43;100239.78;;;16.42;65.22
70133;BME280;57495;49.922;7.966;2022-09-01T04:29:46;100240.09;;;16.39;65.46
70133;BME280;57495;49.922;7.966;2022-09-01T04:31:48;100233.38;;;16.35;65.63
70133;BME280;57495;49.922;7.966;2022-09-01T04:33:52;100235.09;;;16.36;65.87
70133;BME280;57495;49.922;7.966;2022-09-01T04:35:53;100231.34;;;16.37;65.54
70133;BME280;57495;49.922;7.966;2022-09-01T04:37:55;100227.28;;;16.41;65.72
70133;BME280;57495;49.922;7.966;2022-09-01T04:39:57;100230.38;;;16.30;66.31
70133;BME280;57495;49.922;7.966;2022-09-01T04:41:59;100227.50;;;16.32;66.25
70133;BME280;57495;49.922;7.966;2022-09-01T04:44:06;100236.25;;;16.34;66.19
70133;BME280;57495;49.922;7.966;2022-09-01T04:46:07;100234.47;;;16.18;66.57
70133;BME280;57495;49.922;7.966;2022-09-01T04:48:11;100233.44;;;16.27;66.53
70133;BME280;57495;49.922;7.966;2022-09-01T04:50:13;100233.94;;;16.22;67.09
70133;BME280;57495;49.922;7.966;2022-09-01T04:52:16;100237.66;;;16.21;66.90
70133;BME280;57495;49.922;7.966;2022-09-01T04:54:18;100241.22;;;16.14;67.26
70133;BME280;57495;49.922;7.966;2022-09-01T04:56:20;100234.66;;;16.16;67.09
70133;BME280;57495;49.922;7.966;2022-09-01T04:58:23;100239.16;;;16.24;67.20
70133;BME280;57495;49.922;7.966;2022-09-01T05:00:26;100240.88;;;16.17;67.56
70133;BME280;57495;49.922;7.966;2022-09-01T05:02:31;100240.66;;;16.27;67.31
70133;BME280;57495;49.922;7.966;2022-09-01T05:04:32;100235.09;;;16.36;66.93
70133;BME280;57495;49.922;7.966;2022-09-01T05:06:34;100234.59;;;16.33;67.07
70133;BME280;57495;49.922;7.966;2022-09-01T05:08:38;100240.97;;;16.40;66.85
70133;BME280;57495;49.922;7.966;2022-09-01T05:10:43;100241.16;;;16.30;67.56
70133;BME280;57495;49.922;7.966;2022-09-01T05:12:46;100235.75;;;16.38;66.98
70133;BME280;57495;49.922;7.966;2022-09-01T05:14:48;100242.47;;;16.42;67.15
70133;BME280;57495;49.922;7.966;2022-09-01T05:16:55;100233.53;;;16.42;67.22
70133;BME280;57495;49.922;7.966;2022-09-01T05:18:57;100233.66;;;16.49;67.00
70133;BME280;57495;49.922;7.966;2022-09-01T05:21:04;100230.97;;;16.49;66.92
70133;BME280;57495;49.922;7.966;2022-09-01T05:23:11;100233.66;;;16.49;66.84
70133;BME280;57495;49.922;7.966;2022-09-01T05:25:12;100236.69;;;16.54;67.06
70133;BME280;57495;49.922;7.966;2022-09-01T05:27:14;100231.44;;;16.52;66.91
70133;BME280;57495;49.922;7.966;2022-09-01T05:29:17;100230.56;;;16.60;66.91
70133;BME280;57495;49.922;7.966;2022-09-01T05:31:24;100231.09;;;16.55;67.36
70133;BME280;57495;49.922;7.966;2022-09-01T05:33:27;100234.41;;;16.66;67.23
70133;BME280;57495;49.922;7.966;2022-09-01T05:35:28;100232.19;;;16.69;66.85
70133;BME280;57495;49.922;7.966;2022-09-01T05:37:30;100234.56;;;16.72;66.82
70133;BME280;57495;49.922;7.966;2022-09-01T05:39:32;100232.88;;;16.71;66.77
70133;BME280;57495;49.922;7.966;2022-09-01T05:41:34;100232.16;;;16.77;66.71
70133;BME280;57495;49.922;7.966;2022-09-01T05:43:36;100231.47;;;16.84;66.37
70133;BME280;57495;49.922;7.966;2022-09-01T05:45:39;100226.22;;;16.90;66.19
70133;BME280;57495;49.922;7.966;2022-09-01T05:47:44;100235.81;;;16.93;66.05
70133;BME280;57495;49.922;7.966;2022-09-01T05:49:45;100234.72;;;17.02;65.50
70133;BME280;57495;49.922;7.966;2022-09-01T05:51:49;100243.00;;;17.00;65.73
70133;BME280;57495;49.922;7.966;2022-09-01T05:53:52;100238.47;;;17.01;65.79
70133;BME280;57495;49.922;7.966;2022-09-01T05:55:55;100236.94;;;16.98;65.23
70133;BME280;57495;49.922;7.966;2022-09-01T05:57:58;100241.44;;;17.06;65.10
70133;BME280;57495;49.922;7.966;2022-09-01T05:59:59;100237.66;;;17.15;64.88
70133;BME280;57495;49.922;7.966;2022-09-01T06:02:01;100236.50;;;17.18;64.72
70133;BME280;57495;49.922;7.966;2022-09-01T06:04:04;100242.25;;;17.15;64.61
70133;BME280;57495;49.922;7.966;2022-09-01T06:06:06;100229.94;;;17.12;64.81
70133;BME280;57495;49.922;7.966;2022-09-01T06:08:11;100244.84;;;17.08;64.84
70133;BME280;57495;49.922;7.966;2022-09-01T06:10:14;100241.72;;;17.19;64.48
70133;BME280;57495;49.922;7.966;2022-09-01T06:12:16;100236.09;;;17.21;64.59
70133;BME280;57495;49.922;7.966;2022-09-01T06:14:17;100238.94;;;17.28;64.07
70133;BME280;57495;49.922;7.966;2022-09-01T06:16:19;100234.84;;;17.32;63.74
70133;BME280;57495;49.922;7.966;2022-09-01T06:18:21;100235.97;;;17.37;64.14
70133;BME280;57495;49.922;7.966;2022-09-01T06:20:24;100241.94;;;17.33;63.99
70133;BME280;57495;49.922;7.966;2022-09-01T06:22:27;100240.84;;;17.42;63.70
70133;BME280;57495;49.922;7.966;2022-09-01T06:24:28;100242.53;;;17.43;63.62
70133;BME280;57495;49.922;7.966;2022-09-01T06:26:31;100240.78;;;17.50;63.32
70133;BME280;57495;49.922;7.966;2022-09-01T06:28:33;100240.31;;;17.62;63.62
70133;BME280;57495;49.922;7.966;2022-09-01T06:30:40;100250.97;;;17.63;63.48
70133;BME280;57495;49.922;7.966;2022-09-01T06:32:44;100241.66;;;17.66;63.18
70133;BME280;57495;49.922;7.966;2022-09-01T06:34:46;100243.69;;;17.64;62.97
70133;BME280;57495;49.922;7.966;2022-09-01T06:36:51;100246.22;;;17.65;63.33
70133;BME280;57495;49.922;7.966;2022-09-01T06:38:53;100248.25;;;17.63;63.11
70133;BME280;57495;49.922;7.966;2022-09-01T06:40:59;100249.09;;;17.64;62.93
70133;BME280;57495;49.922;7.966;2022-09-01T06:43:01;100248.75;;;17.67;62.97
70133;BME280;57495;49.922;7.966;2022-09-01T06:45:08;100241.94;;;17.71;62.99
70133;BME280;57495;49.922;7.966;2022-09-01T06:47:09;100246.25;;;17.80;62.67
70133;BME280;57495;49.922;7.966;2022-09-01T06:49:10;100248.84;;;17.73;62.54
70133;BME280;57495;49.922;7.966;2022-09-01T06:51:13;100253.00;;;17.84;62.38
70133;BME280;57495;49.922;7.966;2022-09-01T06:53:16;100244.41;;;17.81;62.24
70133;BME280;57495;49.922;7.966;2022-09-01T06:55:20;100249.91;;;17.87;62.33
70133;BME280;57495;49.922;7.966;2022-09-01T06:57:22;100252.63;;;17.87;62.15
70133;BME280;57495;49.922;7.966;2022-09-01T06:59:26;100245.09;;;17.98;61.97
70133;BME280;57495;49.922;7.966;2022-09-01T07:01:30;100252.56;;;17.95;62.05
70133;BME280;57495;49.922;7.966;2022-09-01T07:03:32;100246.88;;;18.05;61.92
70133;BME280;57495;49.922;7.966;2022-09-01T07:05:34;100252.09;;;18.07;61.38
70133;BME280;57495;49.922;7.966;2022-09-01T07:07:38;100257.81;;;18.12;61.67
70133;BME280;57495;49.922;7.966;2022-09-01T07:09:41;100258.81;;;18.26;61.24
70133;BME280;57495;49.922;7.966;2022-09-01T07:11:43;100263.75;;;18.22;61.45
70133;BME280;57495;49.922;7.966;2022-09-01T07:13:44;100267.59;;;18.28;61.25
70133;BME280;57495;49.922;7.966;2022-09-01T07:15:46;100266.00;;;18.33;61.07
70133;BME280;57495;49.922;7.966;2022-09-01T07:17:51;100264.50;;;18.46;60.59
70133;BME280;57495;49.922;7.966;2022-09-01T07:19:53;100262.63;;;18.46;61.01
70133;BME280;57495;49.922;7.966;2022-09-01T07:21:55;100269.16;;;18.52;60.76
70133;BME280;57495;49.922;7.966;2022-09-01T07:23:56;100267.50;;;18.51;60.28
70133;BME280;57495;49.922;7.966;2022-09-01T07:26:05;100267.97;;;18.54;60.78
70133;BME280;57495;49.922;7.966;2022-09-01T07:28:07;100267.09;;;18.54;60.29
70133;BME280;57495;49.922;7.966;2022-09-01T07:30:09;100273.91;;;18.65;60.39
70133;BME280;57495;49.922;7.966;2022-09-01T07:32:11;100273.81;;;18.58;60.12
70133;BME280;57495;49.922;7.966;2022-09-01T07:34:17;100278.88;;;18.61;60.33
70133;BME280;57495;49.922;7.966;2022-09-01T07:36:18;100276.78;;;18.63;60.08
70133;BME280;57495;49.922;7.966;2022-09-01T07:38:21;100279.97;;;18.82;60.25
70133;BME280;57495;49.922;7.966;2022-09-01T07:40:22;100285.31;;;18.75;59.49
70133;BME280;57495;49.922;7.966;2022-09-01T07:42:29;100283.22;;;18.92;59.74
70133;BME280;57495;49.922;7.966;2022-09-01T07:44:30;100279.38;;;19.01;59.10
70133;BME280;57495;49.922;7.966;2022-09-01T07:46:32;100283.09;;;19.00;59.00
70133;BME280;57495;49.922;7.966;2022-09-01T07:48:33;100283.38;;;19.05;58.66
70133;BME280;57495;49.922;7.966;2022-09-01T07:50:36;100277.00;;;19.13;58.56
70133;BME280;57495;49.922;7.966;2022-09-01T07:52:38;100290.72;;;19.11;58.48
70133;BME280;57495;49.922;7.966;2022-09-01T07:54:41;100290.50;;;19.28;58.09
70133;BME280;57495;49.922;7.966;2022-09-01T07:56:43;100282.16;;;19.29;57.87
70133;BME280;57495;49.922;7.966;2022-09-01T07:58:47;100285.72;;;19.30;57.99
70133;BME280;57495;49.922;7.966;2022-09-01T08:00:49;100292.44;;;19.34;57.74
70133;BME280;57495;49.922;7.966;2022-09-01T08:02:52;100285.19;;;19.41;57.59
70133;BME280;57495;49.922;7.966;2022-09-01T08:04:54;100294.94;;;19.57;57.08
70133;BME280;57495;49.922;7.966;2022-09-01T08:06:55;100298.22;;;19.96;56.52
70133;BME280;57495;49.922;7.966;2022-09-01T08:08:58;100295.75;;;20.01;56.08
70133;BME280;57495;49.922;7.966;2022-09-01T08:11:00;100293.56;;;19.89;56.33
70133;BME280;57495;49.922;7.966;2022-09-01T08:13:01;100302.75;;;19.88;56.43
70133;BME280;57495;49.922;7.966;2022-09-01T08:15:06;100298.16;;;19.89;56.55
70133;BME280;57495;49.922;7.966;2022-09-01T08:17:08;100298.34;;;19.87;56.28
70133;BME280;57495;49.922;7.966;2022-09-01T08:19:10;100299.34;;;19.80;56.25
70133;BME280;57495;49.922;7.966;2022-09-01T08:21:12;100305.31;;;19.97;56.28
70133;BME280;57495;49.922;7.966;2022-09-01T08:23:17;100304.56;;;20.09;56.06
70133;BME280;57495;49.922;7.966;2022-09-01T08:25:19;100300.66;;;20.19;56.30
70133;BME280;57495;49.922;7.966;2022-09-01T08:27:20;100304.38;;;20.11;55.62
70133;BME280;57495;49.922;7.966;2022-09-01T08:29:21;100303.31;;;20.05;56.03
70133;BME280;57495;49.922;7.966;2022-09-01T08:31:24;100300.00;;;20.10;56.05
70133;BME280;57495;49.922;7.966;2022-09-01T08:33:26;100306.53;;;20.22;56.02
70133;BME280;57495;49.922;7.966;2022-09-01T08:35:28;100309.69;;;20.19;55.95
70133;BME280;57495;49.922;7.966;2022-09-01T08:37:30;100301.38;;;20.27;56.08
70133;BME280;57495;49.922;7.966;2022-09-01T08:39:31;100299.34;;;20.43;55.71
70133;BME280;57495;49.922;7.966;2022-09-01T08:41:40;100301.94;;;20.58;55.49
70133;BME280;57495;49.922;7.966;2022-09-01T08:43:51;100300.03;;;20.52;55.24
70133;BME280;57495;49.922;7.966;2022-09-01T08:45:57;100300.22;;;20.50;55.44
70133;BME280;57495;49.922;7.966;2022-09-01T08:48:10;100306.66;;;20.42;55.35
70133;BME280;57495;49.922;7.966;2022-09-01T08:50:14;100307.06;;;20.68;55.51
70133;BME280;57495;49.922;7.966;2022-09-01T08:52:21;100304.44;;;20.94;55.14
70133;BME280;57495;49.922;7.966;2022-09-01T08:54:28;100298.81;;;21.09;54.67
70133;BME280;57495;49.922;7.966;2022-09-01T08:56:33;100292.66;;;21.49;54.11
70133;BME280;57495;49.922;7.966;2022-09-01T08:58:36;100293.53;;;21.69;52.96
70133;BME280;57495;49.922;7.966;2022-09-01T09:00:41;100298.94;;;21.96;52.58
70133;BME280;57495;49.922;7.966;2022-09-01T09:02:55;100295.78;;;22.06;51.83
70133;BME280;57495;49.922;7.966;2022-09-01T09:05:04;100297.50;;;21.87;52.54
70133;BME280;57495;49.922;7.966;2022-09-01T09:07:09;100293.94;;;21.79;52.53
70133;BME280;57495;49.922;7.966;2022-09-01T09:09:12;100285.13;;;21.77;53.35
70133;BME280;57495;49.922;7.966;2022-09-01T09:11:23;100290.13;;;22.27;52.14
70133;BME280;57495;49.922;7.966;2022-09-01T09:13:38;100288.44;;;22.19;52.60
70133;BME280;57495;49.922;7.966;2022-09-01T09:15:51;100296.84;;;21.91;51.92
70133;BME280;57495;49.922;7.966;2022-09-01T09:17:58;100292.69;;;21.62;52.45
70133;BME280;57495;49.922;7.966;2022-09-01T09:20:06;100292.63;;;22.35;52.72
70133;BME280;57495;49.922;7.966;2022-09-01T09:22:10;100298.16;;;22.81;50.10
70133;BME280;57495;49.922;7.966;2022-09-01T09:24:16;100279.91;;;22.74;49.79
70133;BME280;57495;49.922;7.966;2022-09-01T09:26:20;100290.31;;;22.91;50.18
70133;BME280;57495;49.922;7.966;2022-09-01T09:28:22;100290.53;;;22.89;50.38
70133;BME280;57495;49.922;7.966;2022-09-01T09:30:25;100287.31;;;22.61;50.40
70133;BME280;57495;49.922;7.966;2022-09-01T09:32:46;100281.31;;;22.18;51.18
70133;BME280;57495;49.922;7.966;2022-09-01T09:34:49;100287.63;;;22.26;51.29
70133;BME280;57495;49.922;7.966;2022-09-01T09:36:52;100282.94;;;22.46;50.84
70133;BME280;57495;49.922;7.966;2022-09-01T09:39:04;100286.69;;;22.58;50.38
70133;BME280;57495;49.922;7.966;2022-09-01T09:41:08;100274.91;;;22.65;50.69
70133;BME280;57495;49.922;7.966;2022-09-01T09:43:15;100276.69;;;22.39;50.08
70133;BME280;57495;49.922;7.966;2022-09-01T09:45:21;100282.75;;;22.48;49.92
70133;BME280;57495;49.922;7.966;2022-09-01T09:47:36;100276.25;;;22.42;50.10
70133;BME280;57495;49.922;7.966;2022-09-01T09:49:37;100272.22;;;23.10;49.29
70133;BME280;57495;49.922;7.966;2022-09-01T09:51:41;100270.84;;;23.83;48.90
70133;BME280;57495;49.922;7.966;2022-09-01T09:53:44;100268.34;;;23.81;45.69
70133;BME280;57495;49.922;7.966;2022-09-01T09:55:52;100268.72;;;23.85;46.19
70133;BME280;57495;49.922;7.966;2022-09-01T09:57:57;100267.53;;;23.81;45.99
70133;BME280;57495;49.922;7.966;2022-09-01T10:00:07;100263.19;;;23.66;46.60
70133;BME280;57495;49.922;7.966;2022-09-01T10:02:24;100266.03;;;24.03;46.48
70133;BME280;57495;49.922;7.966;2022-09-01T10:04:34;100259.91;;;24.63;45.11
70133;BME280;57495;49.922;7.966;2022-09-01T10:06:38;100258.63;;;24.10;45.44
70133;BME280;57495;49.922;7.966;2022-09-01T10:08:44;100251.16;;;24.92;44.39
70133;BME280;57495;49.922;7.966;2022-09-01T10:10:49;100259.41;;;25.03;43.66
70133;BME280;57495;49.922;7.966;2022-09-01T10:12:51;100252.75;;;24.81;43.34
70133;BME280;57495;49.922;7.966;2022-09-01T10:14:54;100254.19;;;24.09;44.31
70133;BME280;57495;49.922;7.966;2022-09-01T10:17:01;100251.53;;;24.03;44.69
70133;BME280;57495;49.922;7.966;2022-09-01T10:19:04;100256.69;;;24.55;43.47
70133;BME280;57495;49.922;7.966;2022-09-01T10:21:09;100232.59;;;24.94;42.79
70133;BME280;57495;49.922;7.966;2022-09-01T10:23:12;100238.69;;;25.07;42.31
70133;BME280;57495;49.922;7.966;2022-09-01T10:25:18;100233.59;;;25.11;42.78
70133;BME280;57495;49.922;7.966;2022-09-01T10:27:22;100237.03;;;25.37;42.27
70133;BME280;57495;49.922;7.966;2022-09-01T10:29:28;100241.72;;;25.72;41.28
70133;BME280;57495;49.922;7.966;2022-09-01T10:31:33;100230.28;;;25.75;41.28
70133;BME280;57495;49.922;7.966;2022-09-01T10:33:34;100239.91;;;25.89;40.35
70133;BME280;57495;49.922;7.966;2022-09-01T10:35:39;100232.31;;;25.91;39.57
70133;BME280;57495;49.922;7.966;2022-09-01T10:37:41;100233.31;;;26.61;40.03
70133;BME280;57495;49.922;7.966;2022-09-01T10:40:09;100233.97;;;26.80;39.23
70133;BME280;57495;49.922;7.966;2022-09-01T10:42:17;100237.63;;;26.45;39.10
70133;BME280;57495;49.922;7.966;2022-09-01T10:44:20;100238.13;;;26.18;39.59
70133;BME280;57495;49.922;7.966;2022-09-01T10:46:41;100231.16;;;25.99;39.93
70133;BME280;57495;49.922;7.966;2022-09-01T10:48:44;100232.56;;;26.01;39.52